createdAt,value
2017-11-24T00:00:43.141Z,97.68
2017-11-24T00:01:53.164Z,97.78
2017-11-24T00:03:03.166Z,97.49
2017-11-24T00:04:12.910Z,97.49
2017-11-24T00:05:22.649Z,97.3
2017-11-24T00:06:32.689Z,97.4
2017-11-24T00:07:42.692Z,97.87
2017-11-24T00:08:52.429Z,97.78
2017-11-24T00:10:02.159Z,98.06
2017-11-24T00:11:12.168Z,98.49
2017-11-24T00:12:21.923Z,98.49
2017-11-24T00:13:33.684Z,98.44
2017-11-24T00:14:43.689Z,98.44
2017-11-24T00:15:53.737Z,98.35
2017-11-24T00:17:03.481Z,98.96
2017-11-24T00:18:13.224Z,98.44
2017-11-24T00:19:22.965Z,99.15
2017-11-24T00:20:32.985Z,98.96
2017-11-24T00:21:43.003Z,99.43
2017-11-24T00:22:53.011Z,99.43
2017-11-24T00:24:02.763Z,99.52
2017-11-24T00:25:12.504Z,99.15
2017-11-24T00:26:22.243Z,99.9
2017-11-24T00:27:32.252Z,99.99
2017-11-24T00:28:42.253Z,99.99
2017-11-24T00:29:52.292Z,99.99
2017-11-24T00:31:02.325Z,99.9
2017-11-24T00:32:12.330Z,99.99
2017-11-24T00:33:22.345Z,99.99
2017-11-24T00:34:32.361Z,99.71
2017-11-24T00:35:42.367Z,99.99
2017-11-24T00:36:52.438Z,99.99
2017-11-24T00:38:02.176Z,99.43
2017-11-24T00:39:11.641Z,99.05
2017-11-24T00:40:21.654Z,99.81
2017-11-24T00:41:31.661Z,99.52
2017-11-24T00:42:41.666Z,99.33
2017-11-24T00:43:51.681Z,99.52
2017-11-24T00:45:01.692Z,99.33
2017-11-24T00:46:11.453Z,99.05
2017-11-24T00:47:21.460Z,98.77
2017-11-24T00:48:31.198Z,99.24
2017-11-24T00:49:41.200Z,99.43
2017-11-24T00:50:50.951Z,99.62
2017-11-24T00:52:00.960Z,99.33
2017-11-24T00:53:10.709Z,99.43
2017-11-24T00:54:20.721Z,99.99
2017-11-24T00:55:30.734Z,99.99
2017-11-24T00:56:40.731Z,99.52
2017-11-24T00:57:50.742Z,99.05
2017-11-24T00:59:00.754Z,99.15
2017-11-24T01:00:10.493Z,99.15
2017-11-24T01:01:20.230Z,98.68
2017-11-24T01:02:29.979Z,98.86
2017-11-24T01:03:39.986Z,98.86
2017-11-24T01:04:49.724Z,98.86
2017-11-24T01:05:59.739Z,98.77
2017-11-24T01:07:09.474Z,99.43
2017-11-24T01:08:19.480Z,99.62
2017-11-24T01:09:29.511Z,99.99
2017-11-24T01:10:39.550Z,99.99
2017-11-24T01:11:49.561Z,99.99
2017-11-24T01:12:59.569Z,99.99
2017-11-24T01:14:09.579Z,99.99
2017-11-24T01:15:19.579Z,99.99
2017-11-24T01:16:29.058Z,99.9
2017-11-24T01:17:39.098Z,99.62
2017-11-24T01:18:48.842Z,99.99
2017-11-24T01:19:58.845Z,99.99
2017-11-24T01:21:08.851Z,99.99
2017-11-24T01:22:18.879Z,99.99
2017-11-24T01:23:28.890Z,99.99
2017-11-24T01:24:38.912Z,99.99
2017-11-24T01:25:48.648Z,99.99
2017-11-24T01:26:58.151Z,99.99
2017-11-24T01:28:08.162Z,99.99
2017-11-24T01:29:18.176Z,99.99
2017-11-24T01:30:28.181Z,99.99
2017-11-24T01:31:38.186Z,99.99
2017-11-24T01:32:48.192Z,99.99
2017-11-24T01:33:58.235Z,99.99
2017-11-24T01:35:08.245Z,99.99
2017-11-24T01:36:18.254Z,99.99
2017-11-24T01:37:28.256Z,99.99
2017-11-24T01:38:37.995Z,99.99
2017-11-24T01:39:48.013Z,99.99
2017-11-24T01:40:58.020Z,99.99
2017-11-24T01:42:08.018Z,99.99
2017-11-24T01:43:17.754Z,99.99
2017-11-24T01:44:27.765Z,99.99
2017-11-24T01:45:37.507Z,99.99
2017-11-24T01:46:47.241Z,99.99
2017-11-24T01:47:57.258Z,99.99
2017-11-24T01:49:07.264Z,99.99
2017-11-24T01:50:17.268Z,99.99
2017-11-24T01:51:27.013Z,99.99
2017-11-24T01:52:41.026Z,99.99
2017-11-24T01:53:51.037Z,99.99
2017-11-24T01:55:01.041Z,99.99
2017-11-24T01:56:11.047Z,99.99
2017-11-24T01:57:21.054Z,99.99
2017-11-24T01:58:30.787Z,99.99
2017-11-24T01:59:40.794Z,99.99
2017-11-24T02:00:50.813Z,99.99
2017-11-24T02:02:00.550Z,99.99
2017-11-24T02:03:10.289Z,99.99
2017-11-24T02:04:20.296Z,99.99
2017-11-24T02:05:30.343Z,99.99
2017-11-24T02:06:40.349Z,99.99
2017-11-24T02:07:50.374Z,99.99
2017-11-24T02:09:00.378Z,99.99
2017-11-24T02:10:10.381Z,99.99
2017-11-24T02:11:20.139Z,99.99
2017-11-24T02:12:29.881Z,99.99
2017-11-24T02:13:39.911Z,99.99
2017-11-24T02:14:49.916Z,99.99
2017-11-24T02:15:59.653Z,99.99
2017-11-24T02:17:09.672Z,99.99
2017-11-24T02:18:19.711Z,99.99
2017-11-24T02:19:29.723Z,99.99
2017-11-24T02:20:39.477Z,99.99
2017-11-24T02:21:49.222Z,99.99
2017-11-24T02:22:59.231Z,99.99
2017-11-24T02:24:08.743Z,99.99
2017-11-24T02:25:18.492Z,99.99
2017-11-24T02:26:28.494Z,99.99
2017-11-24T02:27:38.512Z,99.99
2017-11-24T02:28:48.545Z,99.99
2017-11-24T02:29:58.571Z,99.99
2017-11-24T02:31:08.362Z,99.99
2017-11-24T02:32:18.425Z,99.99
2017-11-24T02:33:28.466Z,99.99
2017-11-24T02:34:38.485Z,99.99
2017-11-24T02:35:48.518Z,99.95
2017-11-24T02:36:58.525Z,99.99
2017-11-24T02:38:08.577Z,99.95
2017-11-24T02:39:18.618Z,99.99
2017-11-24T02:40:28.620Z,99.99
2017-11-24T02:41:38.663Z,99.99
2017-11-24T02:42:48.679Z,99.99
2017-11-24T02:43:58.701Z,99.99
2017-11-24T02:45:08.727Z,99.99
2017-11-24T02:46:18.732Z,99.99
2017-11-24T02:47:28.748Z,99.99
2017-11-24T02:48:38.786Z,99.85
2017-11-24T02:49:48.799Z,99.99
2017-11-24T02:50:58.834Z,99.99
2017-11-24T02:52:08.869Z,99.99
2017-11-24T02:53:18.638Z,99.95
2017-11-24T02:54:28.649Z,99.95
2017-11-24T02:55:38.677Z,99.99
2017-11-24T02:56:48.432Z,99.48
2017-11-24T02:57:58.437Z,98.91
2017-11-24T02:59:08.446Z,98.91
2017-11-24T03:00:18.458Z,98.91
2017-11-24T03:01:28.200Z,98.06
2017-11-24T03:02:37.938Z,97.96
2017-11-24T03:03:47.944Z,97.87
2017-11-24T03:04:57.970Z,97.73
2017-11-24T03:06:07.706Z,97.35
2017-11-24T03:07:17.708Z,97.2
2017-11-24T03:08:27.716Z,97.35
2017-11-24T03:09:37.724Z,97.63
2017-11-24T03:10:47.729Z,96.97
2017-11-24T03:11:57.727Z,96.97
2017-11-24T03:13:07.740Z,97.35
2017-11-24T03:14:17.745Z,97.06
2017-11-24T03:15:27.476Z,97.06
2017-11-24T03:16:37.509Z,97.06
2017-11-24T03:17:47.543Z,96.92
2017-11-24T03:18:57.297Z,97.44
2017-11-24T03:20:07.313Z,97.2
2017-11-24T03:21:17.330Z,96.88
2017-11-24T03:22:27.335Z,97.06
2017-11-24T03:23:37.358Z,97.06
2017-11-24T03:24:46.559Z,97.25
2017-11-24T03:25:56.294Z,97.06
2017-11-24T03:27:06.385Z,96.92
2017-11-24T03:28:16.130Z,97.02
2017-11-24T03:29:25.862Z,97.2
2017-11-24T03:30:35.882Z,97.58
2017-11-24T03:31:45.926Z,96.73
2017-11-24T03:32:55.938Z,97.2
2017-11-24T03:34:05.672Z,97.44
2017-11-24T03:35:15.691Z,96.5
2017-11-24T03:36:25.697Z,96.21
2017-11-24T03:37:35.708Z,96.64
2017-11-24T03:38:45.437Z,96.83
2017-11-24T03:39:55.448Z,96.54
2017-11-24T03:41:05.178Z,97.11
2017-11-24T03:42:14.917Z,97.39
2017-11-24T03:43:24.933Z,96.92
2017-11-24T03:44:34.943Z,97.2
2017-11-24T03:45:44.956Z,97.68
2017-11-24T03:46:54.962Z,97.68
2017-11-24T03:48:04.983Z,97.96
2017-11-24T03:49:14.996Z,97.49
2017-11-24T03:50:25.000Z,97.96
2017-11-24T03:51:35.003Z,98.25
2017-11-24T03:52:44.782Z,98.34
2017-11-24T03:53:54.788Z,98.15
2017-11-24T03:55:04.525Z,97.77
2017-11-24T03:56:14.541Z,97.87
2017-11-24T03:57:24.545Z,98.25
2017-11-24T03:58:34.283Z,98.34
2017-11-24T03:59:44.292Z,97.87
2017-11-24T04:03:29.263Z,98.15
2017-11-24T04:04:39.314Z,98.06
2017-11-24T04:05:49.314Z,98.82
2017-11-24T04:06:59.050Z,98.44
2017-11-24T04:08:08.798Z,98.25
2017-11-24T04:09:18.532Z,98.15
2017-11-24T04:10:28.533Z,98.63
2017-11-24T04:11:38.541Z,98.53
2017-11-24T04:12:48.285Z,98.63
2017-11-24T04:13:58.301Z,98.53
2017-11-24T04:15:08.319Z,98.44
2017-11-24T04:16:18.338Z,99.01
2017-11-24T04:17:28.347Z,98.72
2017-11-24T04:18:38.360Z,98.82
2017-11-24T04:19:48.374Z,99.1
2017-11-24T04:20:58.389Z,99.38
2017-11-24T04:22:08.404Z,98.82
2017-11-24T04:23:18.410Z,98.53
2017-11-24T04:24:28.420Z,98.63
2017-11-24T04:25:38.435Z,98.53
2017-11-24T04:26:48.442Z,98.53
2017-11-24T04:27:58.494Z,99.05
2017-11-24T04:29:08.229Z,98.63
2017-11-24T04:30:18.241Z,98.86
2017-11-24T04:31:27.980Z,99.05
2017-11-24T04:32:37.993Z,99.15
2017-11-24T04:33:48.001Z,99.43
2017-11-24T04:34:58.022Z,99.99
2017-11-24T04:36:07.512Z,99.9
2017-11-24T04:37:17.516Z,99.52
2017-11-24T04:38:27.542Z,99.99
2017-11-24T04:39:37.030Z,99.99
2017-11-24T04:40:47.043Z,99.99
2017-11-24T04:41:57.053Z,99.99
2017-11-24T04:43:06.796Z,99.99
2017-11-24T04:44:16.816Z,99.99
2017-11-24T04:45:26.838Z,99.99
2017-11-24T04:46:36.863Z,99.99
2017-11-24T04:47:46.912Z,99.52
2017-11-24T04:48:56.927Z,99.24
2017-11-24T04:50:06.935Z,99.43
2017-11-24T04:51:16.673Z,98.77
2017-11-24T04:52:26.686Z,98.01
2017-11-24T04:53:36.431Z,98.1
2017-11-24T04:54:46.170Z,97.72
2017-11-24T04:55:56.173Z,97.06
2017-11-24T04:57:06.178Z,97.2
2017-11-24T04:58:16.190Z,97.68
2017-11-24T04:59:26.200Z,97.53
2017-11-24T05:00:36.228Z,97.3
2017-11-24T05:01:45.973Z,97.3
2017-11-24T05:02:55.996Z,97.3
2017-11-24T05:04:06.012Z,97.11
2017-11-24T05:05:15.751Z,97.02
2017-11-24T05:06:25.774Z,97.02
2017-11-24T05:07:35.785Z,96.73
2017-11-24T05:08:45.800Z,97.39
2017-11-24T05:09:55.810Z,95.88
2017-11-24T05:11:05.550Z,95.31
2017-11-24T05:12:15.550Z,95.59
2017-11-24T05:13:25.318Z,95.03
2017-11-24T05:14:35.323Z,95.31
2017-11-24T05:15:45.336Z,94.93
2017-11-24T05:16:55.341Z,95.21
2017-11-24T05:18:05.346Z,95.12
2017-11-24T05:19:15.352Z,95.97
2017-11-24T05:20:25.366Z,96.07
2017-11-24T05:21:34.840Z,95.88
2017-11-24T05:22:44.575Z,95.78
2017-11-24T05:23:54.585Z,95.69
2017-11-24T05:25:04.346Z,95.88
2017-11-24T05:26:14.369Z,96.16
2017-11-24T05:27:24.370Z,95.69
2017-11-24T05:28:34.113Z,95.69
2017-11-24T05:29:44.121Z,96.16
2017-11-24T05:30:54.127Z,95.88
2017-11-24T05:32:03.874Z,95.88
2017-11-24T05:33:13.613Z,96.26
2017-11-24T05:34:23.622Z,95.97
2017-11-24T05:35:33.648Z,95.31
2017-11-24T05:36:43.395Z,94.89
2017-11-24T05:37:53.404Z,95.26
2017-11-24T05:39:03.167Z,95.83
2017-11-24T05:40:13.175Z,96.12
2017-11-24T05:41:23.184Z,95.83
2017-11-24T05:42:32.928Z,96.21
2017-11-24T05:43:42.946Z,96.21
2017-11-24T05:44:52.679Z,96.59
2017-11-24T05:46:02.687Z,97.25
2017-11-24T05:47:12.701Z,96.88
2017-11-24T05:48:22.443Z,97.06
2017-11-24T05:49:32.456Z,97.06
2017-11-24T05:50:42.231Z,96.78
2017-11-24T05:51:52.245Z,97.44
2017-11-24T05:53:02.260Z,97.63
2017-11-24T05:54:12.266Z,97.25
2017-11-24T05:55:22.281Z,98.2
2017-11-24T05:56:32.295Z,98.58
2017-11-24T05:57:42.313Z,98.96
2017-11-24T05:58:52.325Z,98.48
2017-11-24T06:00:02.330Z,98.58
2017-11-24T06:01:12.074Z,99.05
2017-11-24T06:02:22.096Z,98.86
2017-11-24T06:03:32.118Z,98.86
2017-11-24T06:04:42.306Z,99.15
2017-11-24T06:05:52.471Z,99.43
2017-11-24T06:07:03.239Z,99.33
2017-11-24T06:08:12.815Z,99.43
2017-11-24T06:09:23.146Z,98.96
2017-11-24T06:10:33.425Z,99.05
2017-11-24T06:11:44.209Z,98.58
2017-11-24T06:12:55.913Z,98.58
2017-11-24T06:14:07.261Z,98.96
2017-11-24T06:15:18.186Z,98.77
2017-11-24T06:16:29.114Z,98.39
2017-11-24T06:17:39.337Z,98.1
2017-11-24T06:18:49.231Z,97.91
2017-11-24T06:19:59.570Z,98.77
2017-11-24T06:21:09.842Z,98.39
2017-11-24T06:22:20.525Z,98.58
2017-11-24T06:23:32.487Z,98.1
2017-11-24T06:24:42.951Z,97.91
2017-11-24T06:25:52.958Z,97.44
2017-11-24T06:27:02.960Z,97.72
2017-11-24T06:28:12.699Z,97.44
2017-11-24T06:29:23.615Z,96.97
2017-11-24T06:30:34.788Z,96.97
2017-11-24T06:31:45.431Z,97.06
2017-11-24T06:32:56.053Z,96.4
2017-11-24T06:34:06.781Z,96.78
2017-11-24T06:35:17.170Z,96.21
2017-11-24T06:36:27.632Z,96.4
2017-11-24T06:37:38.061Z,96.12
2017-11-24T06:38:47.832Z,95.78
2017-11-24T06:39:57.793Z,95.5
2017-11-24T06:41:08.087Z,95.59
2017-11-24T06:42:18.465Z,95.21
2017-11-24T06:43:29.263Z,94.84
2017-11-24T06:44:40.054Z,95.12
2017-11-24T06:45:52.246Z,95.36
2017-11-24T06:47:04.246Z,94.98
2017-11-24T06:48:15.044Z,95.03
2017-11-24T06:49:25.504Z,94.7
2017-11-24T06:50:35.883Z,94.42
2017-11-24T06:51:46.380Z,94.7
2017-11-24T06:52:56.819Z,95.21
2017-11-24T06:54:07.122Z,94.84
2017-11-24T06:55:17.463Z,94.7
2017-11-24T06:56:27.914Z,94.23
2017-11-24T06:57:37.379Z,94.42
2017-11-24T06:58:47.418Z,94.74
2017-11-24T06:59:57.162Z,94.6
2017-11-24T07:01:07.571Z,94.37
2017-11-24T07:02:18.491Z,94.42
2017-11-24T07:03:29.117Z,94.51
2017-11-24T07:04:39.446Z,93.75
2017-11-24T07:05:49.853Z,93.7
2017-11-24T07:06:59.961Z,93.85
2017-11-24T07:08:09.739Z,93.8
2017-11-24T07:09:19.872Z,93.75
2017-11-24T07:10:30.773Z,93.85
2017-11-24T07:11:40.973Z,93.51
2017-11-24T07:12:51.011Z,93.51
2017-11-24T07:14:01.125Z,94.08
2017-11-24T07:15:11.146Z,93.99
2017-11-24T07:16:21.835Z,93.99
2017-11-24T07:17:33.170Z,93.89
2017-11-24T07:18:43.777Z,93.8
2017-11-24T07:19:54.583Z,93.13
2017-11-24T07:21:05.892Z,93.51
2017-11-24T07:22:17.627Z,93.32
2017-11-24T07:23:28.539Z,93.32
2017-11-24T07:24:39.176Z,93.23
2017-11-24T07:25:49.166Z,93.42
2017-11-24T07:26:59.464Z,94.08
2017-11-24T07:28:09.673Z,93.99
2017-11-24T07:29:20.053Z,94.37
2017-11-24T07:30:30.478Z,94.79
2017-11-24T07:31:40.500Z,94.93
2017-11-24T07:32:50.243Z,94.7
2017-11-24T07:34:00.264Z,94.98
2017-11-24T07:35:10.417Z,95.36
2017-11-24T07:36:20.866Z,95.07
2017-11-24T07:37:31.644Z,95.26
2017-11-24T07:38:42.409Z,95.36
2017-11-24T07:39:53.190Z,95.26
2017-11-24T07:41:03.401Z,96.12
2017-11-24T07:42:13.441Z,96.12
2017-11-24T07:43:23.179Z,95.93
2017-11-24T07:44:32.922Z,95.64
2017-11-24T07:45:42.935Z,96.5
2017-11-24T07:46:52.416Z,95.93
2017-11-24T07:48:02.148Z,95.74
2017-11-24T07:49:12.151Z,95.74
2017-11-24T07:50:22.158Z,96.31
2017-11-24T07:51:32.178Z,95.83
2017-11-24T07:52:42.194Z,96.21
2017-11-24T07:53:52.198Z,96.4
2017-11-24T07:55:02.207Z,96.21
2017-11-24T07:56:11.950Z,95.74
2017-11-24T07:57:21.957Z,95.93
2017-11-24T07:58:31.964Z,96.59
2017-11-24T07:59:41.978Z,96.4
2017-11-24T08:00:52.007Z,96.4
2017-11-24T08:02:01.162Z,97.06
2017-11-24T08:03:10.901Z,96.88
2017-11-24T08:04:20.924Z,97.16
2017-11-24T08:05:30.930Z,96.4
2017-11-24T08:06:40.674Z,96.5
2017-11-24T08:07:50.430Z,96.21
2017-11-24T08:09:02.738Z,96.69
2017-11-24T08:10:12.476Z,96.02
2017-11-24T08:11:22.499Z,96.12
2017-11-24T08:12:32.512Z,96.21
2017-11-24T08:13:42.540Z,96.31
2017-11-24T08:14:52.282Z,97.16
2017-11-24T08:16:02.021Z,97.53
2017-11-24T08:17:11.771Z,97.53
2017-11-24T08:18:21.788Z,97.63
2017-11-24T08:19:31.521Z,97.63
2017-11-24T08:20:41.539Z,97.53
2017-11-24T08:21:51.545Z,97.53
2017-11-24T08:23:01.309Z,97.25
2017-11-24T08:24:11.320Z,96.97
2017-11-24T08:25:21.329Z,96.31
2017-11-24T08:26:31.340Z,96.21
2017-11-24T08:27:41.344Z,96.02
2017-11-24T08:28:51.085Z,95.45
2017-11-24T08:30:01.088Z,95.26
2017-11-24T08:31:11.118Z,94.51
2017-11-24T08:32:20.590Z,93.85
2017-11-24T08:33:30.612Z,93.37
2017-11-24T08:34:39.807Z,93.13
2017-11-24T08:35:49.555Z,93.04
2017-11-24T08:36:59.577Z,92.76
2017-11-24T08:38:09.314Z,92.29
2017-11-24T08:39:19.331Z,93.13
2017-11-24T08:40:29.344Z,93.23
2017-11-24T08:41:39.348Z,92.38
2017-11-24T08:42:49.362Z,93.13
2017-11-24T08:43:59.375Z,94.08
2017-11-24T08:45:09.387Z,93.99
2017-11-24T08:46:19.413Z,93.04
2017-11-24T08:47:29.425Z,92.66
2017-11-24T08:48:39.158Z,92.94
2017-11-24T08:49:49.168Z,92.85
2017-11-24T08:50:59.179Z,92.19
2017-11-24T08:52:08.914Z,91.62
2017-11-24T08:53:18.924Z,91.72
2017-11-24T08:54:28.940Z,91.43
2017-11-24T08:55:38.798Z,91.05
2017-11-24T08:56:49.167Z,90.96
2017-11-24T08:57:59.176Z,90.77
2017-11-24T08:59:09.191Z,90.39
2017-11-24T09:00:19.212Z,90.39
2017-11-24T09:01:29.280Z,89.92
2017-11-24T09:02:39.293Z,89.82
2017-11-24T09:03:49.031Z,89.44
2017-11-24T09:04:58.787Z,88.97
2017-11-24T09:06:08.802Z,88.78
2017-11-24T09:07:18.556Z,89.44
2017-11-24T09:08:28.572Z,89.63
2017-11-24T09:09:38.309Z,88.97
2017-11-24T09:10:48.326Z,88.97
2017-11-24T09:11:58.333Z,88.78
2017-11-24T09:13:08.078Z,88.78
2017-11-24T09:14:18.116Z,88.12
2017-11-24T09:15:28.124Z,88.12
2017-11-24T09:16:38.141Z,87.88
2017-11-24T09:17:47.608Z,88.07
2017-11-24T09:18:57.615Z,88.07
2017-11-24T09:20:07.353Z,87.88
2017-11-24T09:21:17.362Z,87.98
2017-11-24T09:22:27.379Z,88.07
2017-11-24T09:23:37.424Z,87.78
2017-11-24T09:24:47.436Z,87.78
2017-11-24T09:25:57.441Z,87.78
2017-11-24T09:27:06.916Z,87.5
2017-11-24T09:28:16.656Z,87.78
2017-11-24T09:29:26.668Z,87.69
2017-11-24T09:30:36.677Z,86.93
2017-11-24T09:31:46.417Z,87.4
2017-11-24T09:32:56.173Z,87.12
2017-11-24T09:34:06.191Z,86.36
2017-11-24T09:35:16.207Z,87.12
2017-11-24T09:36:26.214Z,86.65
2017-11-24T09:37:36.236Z,86.65
2017-11-24T09:38:45.982Z,86.36
2017-11-24T09:39:55.733Z,86.18
2017-11-24T09:41:05.494Z,86.36
2017-11-24T09:42:15.510Z,86.93
2017-11-24T09:43:25.259Z,86.83
2017-11-24T09:44:35.018Z,87.31
2017-11-24T09:45:45.028Z,87.4
2017-11-24T09:46:54.771Z,87.12
2017-11-24T09:48:05.448Z,86.74
2017-11-24T09:49:15.480Z,86.55
2017-11-24T09:50:24.683Z,86.36
2017-11-24T09:51:34.420Z,86.65
2017-11-24T09:52:44.437Z,86.65
2017-11-24T09:53:54.453Z,86.65
2017-11-24T09:55:04.215Z,86.55
2017-11-24T09:56:14.235Z,85.61
2017-11-24T09:57:23.707Z,85.7
2017-11-24T09:58:32.911Z,85.99
2017-11-24T09:59:42.658Z,86.18
2017-11-24T10:00:52.669Z,85.7
2017-11-24T10:02:02.421Z,86.08
2017-11-24T10:03:12.431Z,85.8
2017-11-24T10:04:22.237Z,85.51
2017-11-24T10:05:31.971Z,84.94
2017-11-24T10:06:41.439Z,85.51
2017-11-24T10:07:51.190Z,84.56
2017-11-24T10:09:01.193Z,84.75
2017-11-24T10:10:10.937Z,84.85
2017-11-24T10:11:20.940Z,84.85
2017-11-24T10:12:30.694Z,84
2017-11-24T10:13:40.703Z,84.38
2017-11-24T10:14:50.445Z,84
2017-11-24T10:16:00.200Z,84.94
2017-11-24T10:17:13.431Z,84
2017-11-24T10:18:23.448Z,83.9
2017-11-24T10:19:33.457Z,84.28
2017-11-24T10:20:43.198Z,83.81
2017-11-24T10:21:53.208Z,84.66
2017-11-24T10:23:02.950Z,84.38
2017-11-24T10:24:12.684Z,84.75
2017-11-24T10:25:22.688Z,83.81
2017-11-24T10:26:32.438Z,83.71
2017-11-24T10:27:42.446Z,83.52
2017-11-24T10:28:52.456Z,82.14
2017-11-24T10:30:02.467Z,81.1
2017-11-24T10:31:12.494Z,81.86
2017-11-24T10:32:22.570Z,80.72
2017-11-24T10:33:32.599Z,80.06
2017-11-24T10:34:42.610Z,79.77
2017-11-24T10:35:52.616Z,79.44
2017-11-24T10:37:02.634Z,79.44
2017-11-24T10:38:12.640Z,78.3
2017-11-24T10:39:22.659Z,78.58
2017-11-24T10:40:32.400Z,77.83
2017-11-24T10:41:42.419Z,77.83
2017-11-24T10:42:52.486Z,78.67
2017-11-24T10:44:02.220Z,78.39
2017-11-24T10:45:12.238Z,78.58
2017-11-24T10:46:22.246Z,78.64
2017-11-24T10:47:32.292Z,79.3
2017-11-24T10:48:42.037Z,78.92
2017-11-24T10:49:52.051Z,79.58
2017-11-24T10:51:02.068Z,80.06
2017-11-24T10:52:12.083Z,79.87
2017-11-24T10:53:22.096Z,80.63
2017-11-24T10:54:31.835Z,80.82
2017-11-24T10:55:41.851Z,80.82
2017-11-24T10:56:50.781Z,81.1
2017-11-24T10:58:00.251Z,81.1
2017-11-24T10:59:10.000Z,80.91
2017-11-24T11:00:20.026Z,80.82
2017-11-24T11:01:29.810Z,81.1
2017-11-24T11:02:39.819Z,80.34
2017-11-24T11:03:49.574Z,80.72
2017-11-24T11:04:59.307Z,80.25
2017-11-24T11:06:09.047Z,80.06
2017-11-24T11:07:19.058Z,79.68
2017-11-24T11:08:29.069Z,78.58
2017-11-24T11:09:38.807Z,77.92
2017-11-24T11:10:48.817Z,77.45
2017-11-24T11:11:58.856Z,77.35
2017-11-24T11:13:08.876Z,77.16
2017-11-24T11:14:18.616Z,76.59
2017-11-24T11:15:28.642Z,75.84
2017-11-24T11:16:38.656Z,75.68
2017-11-24T11:17:48.396Z,75.59
2017-11-24T11:18:58.409Z,75.31
2017-11-24T11:20:08.147Z,75.31
2017-11-24T11:21:17.887Z,75.21
2017-11-24T11:22:27.901Z,74.73
2017-11-24T11:23:37.650Z,74.45
2017-11-24T11:24:47.679Z,74.26
2017-11-24T11:25:57.149Z,74.64
2017-11-24T11:27:06.897Z,73.22
2017-11-24T11:28:16.908Z,72.84
2017-11-24T11:29:26.646Z,73.03
2017-11-24T11:30:36.667Z,72.93
2017-11-24T11:31:46.694Z,72.74
2017-11-24T11:32:56.445Z,72.45
2017-11-24T11:34:06.199Z,73.03
2017-11-24T11:35:16.227Z,73.12
2017-11-24T11:36:26.255Z,72.17
2017-11-24T11:37:36.258Z,71.98
2017-11-24T11:38:46.010Z,71.92
2017-11-24T11:39:56.021Z,72.21
2017-11-24T11:41:05.493Z,71.07
2017-11-24T11:42:15.513Z,70.78
2017-11-24T11:43:25.527Z,70.88
2017-11-24T11:44:35.303Z,70.69
2017-11-24T11:45:45.310Z,70.98
2017-11-24T11:46:55.325Z,70.69
2017-11-24T11:48:05.339Z,70.78
2017-11-24T11:49:15.362Z,70.98
2017-11-24T11:50:25.415Z,70.59
2017-11-24T11:51:35.169Z,70.5
2017-11-24T11:52:44.944Z,70.88
2017-11-24T11:53:54.971Z,70.78
2017-11-24T11:55:04.991Z,70.31
2017-11-24T11:56:15.505Z,70.03
2017-11-24T11:57:25.318Z,69.55
2017-11-24T11:58:35.325Z,68.51
2017-11-24T11:59:45.341Z,69.17
2017-11-24T12:00:55.357Z,69.27
2017-11-24T12:02:05.102Z,69.55
2017-11-24T12:03:15.118Z,68.98
2017-11-24T12:04:25.145Z,68.51
2017-11-24T12:05:34.619Z,68.41
2017-11-24T12:06:44.633Z,68.23
2017-11-24T12:07:54.646Z,68.16
2017-11-24T12:09:04.673Z,68.26
2017-11-24T12:10:14.693Z,67.12
2017-11-24T12:11:24.722Z,66.27
2017-11-24T12:12:34.742Z,65.31
2017-11-24T12:13:44.786Z,64.94
2017-11-24T12:14:54.528Z,65.22
2017-11-24T12:16:04.542Z,65.12
2017-11-24T12:17:14.557Z,66.08
2017-11-24T12:18:24.578Z,65.06
2017-11-24T12:19:34.592Z,66.01
2017-11-24T12:20:44.077Z,64.69
2017-11-24T12:21:54.097Z,63.92
2017-11-24T12:23:04.119Z,63.83
2017-11-24T12:24:13.913Z,63.17
2017-11-24T12:25:23.919Z,63.67
2017-11-24T12:26:33.665Z,64.69
2017-11-24T12:27:43.725Z,64.05
2017-11-24T12:28:53.759Z,62.53
2017-11-24T12:30:03.777Z,62.24
2017-11-24T12:31:15.529Z,63.57
2017-11-24T12:32:25.553Z,62.72
2017-11-24T12:33:35.581Z,63.39
2017-11-24T12:34:45.606Z,63.51
2017-11-24T12:35:55.624Z,62.56
2017-11-24T12:37:05.100Z,61.42
2017-11-24T12:38:14.844Z,60.94
2017-11-24T12:39:24.859Z,60.38
2017-11-24T12:40:34.877Z,61.32
2017-11-24T12:41:44.887Z,59.99
2017-11-24T12:42:54.899Z,59.99
2017-11-24T12:44:04.645Z,60.44
2017-11-24T12:45:14.660Z,61.2
2017-11-24T12:46:24.141Z,63.57
2017-11-24T12:47:34.174Z,63.7
2017-11-24T12:48:44.204Z,61.42
2017-11-24T12:49:54.244Z,61.99
2017-11-24T12:51:04.260Z,61.9
2017-11-24T12:52:14.009Z,62.59
2017-11-24T12:53:24.059Z,58.79
2017-11-24T12:54:34.081Z,59.17
2017-11-24T12:55:44.110Z,60.5
2017-11-24T12:56:54.135Z,58.88
2017-11-24T12:58:03.875Z,59.93
2017-11-24T12:59:13.349Z,57.65
2017-11-24T13:00:23.108Z,58.31
2017-11-24T13:01:33.121Z,58.76
2017-11-24T13:02:43.144Z,61.93
2017-11-24T13:03:53.191Z,61.64
2017-11-24T13:05:03.211Z,61.48
2017-11-24T13:06:12.954Z,60.53
2017-11-24T13:07:22.988Z,61.29
2017-11-24T13:08:33.003Z,62.91
2017-11-24T13:09:43.018Z,60.6
2017-11-24T13:10:52.763Z,60.41
2017-11-24T13:12:02.794Z,62.75
2017-11-24T13:13:12.810Z,64.18
2017-11-24T13:14:22.838Z,61.99
2017-11-24T13:15:32.859Z,62.91
2017-11-24T13:16:42.883Z,63.45
2017-11-24T13:17:52.902Z,64.84
2017-11-24T13:19:02.381Z,65.41
2017-11-24T13:20:12.398Z,65.88
2017-11-24T13:21:22.418Z,66.33
2017-11-24T13:22:32.175Z,66.99
2017-11-24T13:23:42.186Z,67.71
2017-11-24T13:24:51.930Z,68.04
2017-11-24T13:26:01.943Z,68.19
2017-11-24T13:27:11.685Z,68.95
2017-11-24T13:28:21.692Z,69.52
2017-11-24T13:29:31.708Z,70.34
2017-11-24T13:30:41.726Z,70.53
2017-11-24T13:31:51.741Z,70.43
2017-11-24T13:33:01.751Z,72.04
2017-11-24T13:34:11.774Z,73.08
2017-11-24T13:35:21.247Z,72.89
2017-11-24T13:36:31.050Z,73.37
2017-11-24T13:37:40.808Z,73.75
2017-11-24T13:38:50.830Z,74.18
2017-11-24T13:40:00.840Z,74.75
2017-11-24T13:41:10.307Z,74.66
2017-11-24T13:42:20.315Z,74.85
2017-11-24T13:43:30.332Z,75.32
2017-11-24T13:44:40.066Z,75.04
2017-11-24T13:45:49.824Z,75.42
2017-11-24T13:46:59.834Z,75.51
2017-11-24T13:48:09.851Z,76.17
2017-11-24T13:49:19.874Z,75.98
2017-11-24T13:50:29.878Z,77.03
2017-11-24T13:51:39.924Z,76.84
2017-11-24T13:52:49.392Z,76.46
2017-11-24T13:53:59.138Z,76.36
2017-11-24T13:55:09.197Z,76.84
2017-11-24T13:56:19.205Z,77.03
2017-11-24T13:57:29.214Z,77.4
2017-11-24T13:58:38.679Z,77.46
2017-11-24T13:59:48.686Z,77.46
2017-11-24T14:00:58.699Z,77.37
2017-11-24T14:02:08.724Z,77.27
2017-11-24T14:03:18.742Z,77.46
2017-11-24T14:04:28.748Z,78.03
2017-11-24T14:05:38.778Z,77.65
2017-11-24T14:06:48.824Z,77.65
2017-11-24T14:07:58.839Z,77.84
2017-11-24T14:09:08.310Z,77.65
2017-11-24T14:10:18.327Z,77.27
2017-11-24T14:11:27.807Z,77.56
2017-11-24T14:12:37.548Z,77.18
2017-11-24T14:13:47.555Z,77.65
2017-11-24T14:14:57.589Z,77.37
2017-11-24T14:16:07.608Z,77.46
2017-11-24T14:17:17.619Z,77.27
2017-11-24T14:18:27.097Z,77.37
2017-11-24T14:19:37.112Z,78.03
2017-11-24T14:20:47.125Z,78.03
2017-11-24T14:21:56.880Z,77.65
2017-11-24T14:23:06.901Z,78.69
2017-11-24T14:24:16.368Z,78.22
2017-11-24T14:25:26.381Z,77.75
2017-11-24T14:26:36.386Z,77.84
2017-11-24T14:27:46.132Z,78.59
2017-11-24T14:28:56.147Z,78.5
2017-11-24T14:30:05.903Z,78.41
2017-11-24T14:31:15.639Z,78.5
2017-11-24T14:32:25.643Z,78.59
2017-11-24T14:33:35.658Z,78.59
2017-11-24T14:34:45.676Z,78.31
2017-11-24T14:35:55.683Z,78.41
2017-11-24T14:37:05.700Z,78.41
2017-11-24T14:38:15.440Z,78.5
2017-11-24T14:39:25.444Z,78.41
2017-11-24T14:40:35.448Z,78.13
2017-11-24T14:41:45.188Z,78.41
2017-11-24T14:42:55.197Z,78.5
2017-11-24T14:44:05.205Z,79.17
2017-11-24T14:45:16.262Z,79.17
2017-11-24T14:46:25.998Z,79.36
2017-11-24T14:47:36.012Z,79.07
2017-11-24T14:48:45.755Z,78.41
2017-11-24T14:49:55.772Z,79.07
2017-11-24T14:51:05.519Z,79.07
2017-11-24T14:52:15.522Z,78.41
2017-11-24T14:53:25.538Z,78.22
2017-11-24T14:54:35.547Z,78.59
2017-11-24T14:55:45.553Z,77.75
2017-11-24T14:56:55.568Z,78.79
2017-11-24T14:58:05.302Z,77.94
2017-11-24T14:59:15.318Z,78.03
2017-11-24T15:00:25.318Z,77.75
2017-11-24T15:01:35.321Z,77.84
2017-11-24T15:02:45.331Z,77.94
2017-11-24T15:03:55.076Z,77.84
2017-11-24T15:05:05.095Z,77.84
2017-11-24T15:06:15.114Z,77.75